Overview Statistics Trail Chart Weather Telemetry Raw packets
 

This is the latest recevied weather packets stored in our database for station/object W2SBL-1. If no packets are shown the sender has not sent any weather packets the latest 10 day(s).

<< 1 2 3 4 5 6 7 >>
Time Temp. Humidity Pressure Rain* Wind** Luminosity Snow
1788548322 38.33° C 52% 1009.8 hPa - - - -
1788547422 38.89° C 51% 1015.5 hPa - - - -
1788535720 38.33° C 43% 1010.4 hPa - - - -
1788469114 32.78° C 59% 1011.6 hPa - - - -
1788466414 35.56° C 56% 1011.6 hPa - - - -
1788464614 37.22° C 55% 1017.2 hPa - - - -
1788460113 39.44° C 49% 1012.3 hPa - - - -
1788457413 37.22° C 51% 1012.6 hPa - - - -
1788451112 32.78° C 53% 1013.5 hPa - - - -
1788450232 32.22° C 52% 1013.5 hPa - - - -
1788446612 27.78° C 57% 1013.8 hPa - - - -
1788443912 26.67° C 58% 1014.2 hPa - - - -
1788442112 26.11° C 58% 1014.6 hPa - - - -
1788441212 26.11° C 58% 1014.5 hPa - - - -
1788438511 26.11° C 58% 1015.1 hPa - - - -
1788437611 25.56° C 58% 1021 hPa - - - -
1788436711 25° C 58% 1014.3 hPa - - - -
1788434911 25° C 59% 1014.8 hPa - - - -
1788434011 25° C 59% 1015.2 hPa - - - -
1788433111 25° C 59% 1015.4 hPa - - - -
1788432211 25° C 59% 1015.3 hPa - - - -
1788431311 24.44° C 59% 1014.6 hPa - - - -
1788430411 24.44° C 59% 1014.9 hPa - - - -
1788429510 24.44° C 59% 1014.4 hPa - - - -
1788428610 24.44° C 59% 1014.1 hPa - - - -

* Rain since midnight (hover to see other rain measurements)
** Current wind speed in m/s (hover to see current wind gust speed)